createdAt,value
2023-01-25T00:00:17.896Z,2.8
2023-01-25T00:01:25.114Z,2.8
2023-01-25T00:02:32.102Z,2.8
2023-01-25T00:03:39.100Z,2.8
2023-01-25T00:04:46.051Z,2.9
2023-01-25T00:05:52.994Z,2.8
2023-01-25T00:07:04.700Z,2.9
2023-01-25T00:08:12.868Z,3
2023-01-25T00:09:19.837Z,3
2023-01-25T00:10:28.782Z,3
2023-01-25T00:11:35.888Z,3.1
2023-01-25T00:12:42.809Z,2.8
2023-01-25T00:13:51.413Z,2.8
2023-01-25T00:15:00.430Z,2.9
2023-01-25T00:16:07.652Z,2.5
2023-01-25T00:17:15.110Z,2.4
2023-01-25T00:18:22.016Z,2.4
2023-01-25T00:19:28.981Z,2.7
2023-01-25T00:20:36.436Z,2.8
2023-01-25T00:21:43.389Z,2.9
2023-01-25T00:22:50.321Z,3
2023-01-25T00:23:57.481Z,3.1
2023-01-25T00:25:04.867Z,3.1
2023-01-25T00:26:12.017Z,3.1
2023-01-25T00:27:19.498Z,3.1
2023-01-25T00:28:26.481Z,3
2023-01-25T00:29:33.686Z,3.1
2023-01-25T00:30:40.641Z,3.1
2023-01-25T00:31:47.714Z,3.1
2023-01-25T00:32:59.835Z,3.1
2023-01-25T00:34:09.554Z,3.1
2023-01-25T00:35:26.862Z,3.2
2023-01-25T00:36:33.920Z,3.2
2023-01-25T00:37:40.890Z,3.2
2023-01-25T00:38:47.945Z,3.2
2023-01-25T00:39:55.132Z,3.3
2023-01-25T00:41:03.142Z,3.3
2023-01-25T00:42:10.655Z,3.2
2023-01-25T00:43:17.867Z,3.1
2023-01-25T00:44:25.745Z,3.1
2023-01-25T00:45:33.502Z,3
2023-01-25T00:46:40.531Z,3
2023-01-25T00:47:47.956Z,3.1
2023-01-25T00:48:55.117Z,3
2023-01-25T00:50:02.116Z,3
2023-01-25T00:51:09.691Z,3
2023-01-25T00:52:17.016Z,3.1
2023-01-25T00:53:24.409Z,3
2023-01-25T00:54:32.039Z,3.1
2023-01-25T00:55:39.909Z,3.1
2023-01-25T00:56:47.681Z,3
2023-01-25T00:57:57.430Z,3
2023-01-25T00:59:04.481Z,3
2023-01-25T01:00:12.133Z,2.9
2023-01-25T01:01:20.183Z,3
2023-01-25T01:02:27.354Z,3
2023-01-25T01:03:34.332Z,2.7
2023-01-25T01:04:41.877Z,2.9
2023-01-25T01:05:48.797Z,3.1
2023-01-25T01:07:01.047Z,2.9
2023-01-25T01:08:08.015Z,2.9
2023-01-25T01:09:15.414Z,3
2023-01-25T01:10:22.349Z,3
2023-01-25T01:11:29.797Z,3
2023-01-25T01:12:37.366Z,2.9
2023-01-25T01:13:44.208Z,2.8
2023-01-25T01:14:52.160Z,2.9
2023-01-25T01:15:59.700Z,2.7
2023-01-25T01:17:07.704Z,2.8
2023-01-25T01:18:14.847Z,2.9
2023-01-25T01:19:21.772Z,2.8
2023-01-25T01:20:28.797Z,2.9
2023-01-25T01:21:37.608Z,2.9
2023-01-25T01:22:44.485Z,2.8
2023-01-25T01:23:52.379Z,2.6
2023-01-25T01:24:59.321Z,2.8
2023-01-25T01:26:06.359Z,2.8
2023-01-25T01:27:13.255Z,2.8
2023-01-25T01:28:20.152Z,2.7
2023-01-25T01:29:27.620Z,2.6
2023-01-25T01:30:34.625Z,2.5
2023-01-25T01:31:41.653Z,2.5
2023-01-25T01:32:49.986Z,2.6
2023-01-25T01:33:57.832Z,2.6
2023-01-25T01:35:05.646Z,2.5
2023-01-25T01:36:12.505Z,2.6
2023-01-25T01:37:19.909Z,2.6
2023-01-25T01:38:27.168Z,2.7
2023-01-25T01:39:34.111Z,2.7
2023-01-25T01:40:40.960Z,2.8
2023-01-25T01:41:48.790Z,2.9
2023-01-25T01:42:56.676Z,2.8
2023-01-25T01:44:03.907Z,2.9
2023-01-25T01:45:10.868Z,2.8
2023-01-25T01:46:28.452Z,2.7
2023-01-25T01:47:38.584Z,2.7
2023-01-25T01:48:45.996Z,2.7
2023-01-25T01:49:55.665Z,2.8
2023-01-25T01:51:05.819Z,2.7
2023-01-25T01:52:18.511Z,2.8
2023-01-25T01:53:26.301Z,2.8
2023-01-25T01:54:33.368Z,2.9
2023-01-25T01:55:47.212Z,2.9
2023-01-25T01:56:54.144Z,2.8
2023-01-25T01:58:03.909Z,2.7
2023-01-25T01:59:11.348Z,2.9
2023-01-25T02:00:18.397Z,2.7
2023-01-25T02:01:32.360Z,2.6
2023-01-25T02:02:40.019Z,2.6
2023-01-25T02:03:47.402Z,2.5
2023-01-25T02:04:54.351Z,2.6
2023-01-25T02:06:01.272Z,2.8
2023-01-25T02:07:09.296Z,2.8
2023-01-25T02:08:19.611Z,2.7
2023-01-25T02:09:27.065Z,2.7
2023-01-25T02:10:34.236Z,2.7
2023-01-25T02:11:41.240Z,2.8
2023-01-25T02:12:49.103Z,2.8
2023-01-25T02:13:56.325Z,2.8
2023-01-25T02:15:04.427Z,2.8
2023-01-25T02:16:11.798Z,2.8
2023-01-25T02:17:22.129Z,2.9
2023-01-25T02:18:31.975Z,2.8
2023-01-25T02:19:39.060Z,2.8
2023-01-25T02:20:51.264Z,2.8
2023-01-25T02:21:58.345Z,2.8
2023-01-25T02:23:06.275Z,2.8
2023-01-25T02:24:13.378Z,2.7
2023-01-25T02:25:20.237Z,2.7
2023-01-25T02:26:27.415Z,2.7
2023-01-25T02:27:35.752Z,2.7
2023-01-25T02:28:43.198Z,2.6
2023-01-25T02:29:51.049Z,2.8
2023-01-25T02:30:58.260Z,2.8
2023-01-25T02:32:05.751Z,2.8
2023-01-25T02:33:13.138Z,2.8
2023-01-25T02:34:20.703Z,2.9
2023-01-25T02:35:27.732Z,2.9
2023-01-25T02:36:43.502Z,2.8
2023-01-25T02:37:51.428Z,2.8
2023-01-25T02:38:58.820Z,2.6
2023-01-25T02:40:05.969Z,2.4
2023-01-25T02:41:13.802Z,2.5
2023-01-25T02:42:20.745Z,2.4
2023-01-25T02:43:28.084Z,2.4
2023-01-25T02:44:35.334Z,2.5
2023-01-25T02:45:42.283Z,2.5
2023-01-25T02:46:49.682Z,2.4
2023-01-25T02:47:56.666Z,2.5
2023-01-25T02:49:03.696Z,2.5
2023-01-25T02:50:11.129Z,2.4
2023-01-25T02:51:18.225Z,2.3
2023-01-25T02:52:25.251Z,2.3
2023-01-25T02:53:32.196Z,2.5
2023-01-25T02:54:39.255Z,2.5
2023-01-25T02:55:46.814Z,2.3
2023-01-25T02:56:53.935Z,2.2
2023-01-25T02:58:01.486Z,2.3
2023-01-25T02:59:08.534Z,2.3
2023-01-25T03:00:15.504Z,2.5
2023-01-25T03:01:22.493Z,2.6
2023-01-25T03:02:30.020Z,2.7
2023-01-25T03:03:36.902Z,2.6
2023-01-25T03:04:44.511Z,2.5
2023-01-25T03:05:51.734Z,2.6
2023-01-25T03:06:58.827Z,2.4
2023-01-25T03:08:05.800Z,2.5
2023-01-25T03:09:13.187Z,2.6
2023-01-25T03:10:20.931Z,2.8
2023-01-25T03:11:27.941Z,2.8
2023-01-25T03:12:36.671Z,2.8
2023-01-25T03:13:44.531Z,2.4
2023-01-25T03:14:51.507Z,2.3
2023-01-25T03:15:58.492Z,2.4
2023-01-25T03:17:08.576Z,2.3
2023-01-25T03:18:15.536Z,2.3
2023-01-25T03:19:22.482Z,2.5
2023-01-25T03:20:29.516Z,2.6
2023-01-25T03:21:36.460Z,2.4
2023-01-25T03:22:43.483Z,2.5
2023-01-25T03:23:51.610Z,2.4
2023-01-25T03:24:58.703Z,2.5
2023-01-25T03:26:05.624Z,2.4
2023-01-25T03:27:12.619Z,2.5
2023-01-25T03:28:19.594Z,2.4
2023-01-25T03:29:26.546Z,2.4
2023-01-25T03:30:34.431Z,2.4
2023-01-25T03:31:41.380Z,2.4
2023-01-25T03:32:49.285Z,2.4
2023-01-25T03:33:57.144Z,2.6
2023-01-25T03:35:04.284Z,2.6
2023-01-25T03:36:11.969Z,2.7
2023-01-25T03:37:18.999Z,2.7
2023-01-25T03:38:26.803Z,2.7
2023-01-25T03:39:33.783Z,2.8
2023-01-25T03:40:40.720Z,2.7
2023-01-25T03:41:48.742Z,2.8
2023-01-25T03:42:55.796Z,2.7
2023-01-25T03:44:02.740Z,2.8
2023-01-25T03:45:10.100Z,2.8
2023-01-25T03:46:16.690Z,2.7
2023-01-25T03:47:23.686Z,2.8
2023-01-25T03:48:31.221Z,2.8
2023-01-25T03:49:38.180Z,2.8
2023-01-25T03:50:45.092Z,2.7
2023-01-25T03:51:52.042Z,2.7
2023-01-25T03:52:59.053Z,2.7
2023-01-25T03:54:06.309Z,2.7
2023-01-25T03:55:13.320Z,2.8
2023-01-25T03:56:20.663Z,2.7
2023-01-25T03:57:28.036Z,2.7
2023-01-25T03:58:35.069Z,2.8
2023-01-25T03:59:41.979Z,2.9
2023-01-25T04:00:49.267Z,3
2023-01-25T04:01:57.352Z,2.8
2023-01-25T04:03:05.160Z,2.6
2023-01-25T04:04:12.197Z,2.5
2023-01-25T04:05:19.377Z,2.6
2023-01-25T04:06:26.456Z,2.3
2023-01-25T04:07:33.604Z,2.1
2023-01-25T04:08:40.588Z,2.1
2023-01-25T04:09:48.491Z,2.2
2023-01-25T04:10:55.968Z,2.5
2023-01-25T04:12:08.034Z,2.6
2023-01-25T04:13:15.517Z,2.6
2023-01-25T04:14:35.236Z,2.8
2023-01-25T04:15:29.992Z,2.7
2023-01-25T04:16:37.565Z,2.7
2023-01-25T04:17:44.592Z,2.7
2023-01-25T04:18:51.532Z,2.6
2023-01-25T04:19:58.439Z,2.7
2023-01-25T04:21:05.482Z,2.8
2023-01-25T04:22:12.385Z,2.8
2023-01-25T04:23:20.280Z,2.9
2023-01-25T04:24:28.103Z,2.9
2023-01-25T04:25:35.008Z,2.7
2023-01-25T04:26:42.065Z,2.7
2023-01-25T04:27:49.040Z,2.7
2023-01-25T04:28:56.551Z,2.8
2023-01-25T04:30:04.688Z,2.8
2023-01-25T04:31:13.427Z,2.6
2023-01-25T04:32:21.217Z,2.7
2023-01-25T04:33:28.050Z,2.8
2023-01-25T04:34:35.202Z,2.8
2023-01-25T04:35:42.224Z,2.8
2023-01-25T04:36:49.521Z,2.9
2023-01-25T04:37:56.740Z,2.9
2023-01-25T04:39:03.689Z,3
2023-01-25T04:40:12.043Z,3
2023-01-25T04:41:19.136Z,3
2023-01-25T04:42:26.313Z,3.1
2023-01-25T04:43:33.476Z,3
2023-01-25T04:44:40.458Z,3
2023-01-25T04:45:47.735Z,3
2023-01-25T04:46:54.577Z,3
2023-01-25T04:48:01.565Z,3
2023-01-25T04:49:08.904Z,3
2023-01-25T04:50:16.699Z,3
2023-01-25T04:51:24.605Z,2.9
2023-01-25T04:52:32.140Z,3
2023-01-25T04:53:40.033Z,3
2023-01-25T04:54:47.052Z,3
2023-01-25T04:55:54.059Z,3
2023-01-25T04:57:01.064Z,3
2023-01-25T04:58:08.279Z,3
2023-01-25T04:59:17.082Z,3
2023-01-25T05:00:24.801Z,3
2023-01-25T05:01:33.010Z,3
2023-01-25T05:02:39.917Z,2.8
2023-01-25T05:03:47.013Z,3
2023-01-25T05:04:53.937Z,3
2023-01-25T05:06:01.349Z,3
2023-01-25T05:07:09.264Z,3
2023-01-25T05:08:16.198Z,3
2023-01-25T05:09:24.485Z,3
2023-01-25T05:10:31.441Z,3
2023-01-25T05:11:38.612Z,3
2023-01-25T05:12:45.745Z,3.1
2023-01-25T05:13:52.704Z,3
2023-01-25T05:14:59.729Z,3.1
2023-01-25T05:16:08.416Z,3.1
2023-01-25T05:17:13.756Z,3.2
2023-01-25T05:18:20.836Z,3.2
2023-01-25T05:19:27.888Z,3.2
2023-01-25T05:20:34.899Z,3.2
2023-01-25T05:21:44.429Z,3.1
2023-01-25T05:22:55.960Z,3
2023-01-25T05:24:03.454Z,3.1
2023-01-25T05:25:11.001Z,3.1
2023-01-25T05:26:22.877Z,3.1
2023-01-25T05:27:35.455Z,3.1
2023-01-25T05:28:42.447Z,2.9
2023-01-25T05:29:50.151Z,2.7
2023-01-25T05:30:57.112Z,2.9
2023-01-25T05:32:04.511Z,2.9
2023-01-25T05:33:16.478Z,3
2023-01-25T05:34:24.599Z,3
2023-01-25T05:35:31.591Z,3
2023-01-25T05:36:38.588Z,3
2023-01-25T05:37:46.219Z,3
2023-01-25T05:38:53.248Z,3
2023-01-25T05:40:00.396Z,3
2023-01-25T05:41:08.066Z,3
2023-01-25T05:42:15.062Z,3.1
2023-01-25T05:43:22.774Z,3.1
2023-01-25T05:44:31.298Z,3.1
2023-01-25T05:45:38.410Z,3.1
2023-01-25T05:46:45.464Z,3.1
2023-01-25T05:47:52.440Z,3.1
2023-01-25T05:48:59.731Z,3.1
2023-01-25T05:50:08.771Z,3.1
2023-01-25T05:51:14.536Z,3.1
2023-01-25T05:52:22.560Z,3.1
2023-01-25T05:53:30.473Z,3.1
2023-01-25T05:54:37.742Z,3.1
2023-01-25T05:55:44.662Z,3.2
2023-01-25T05:56:51.599Z,3.2
2023-01-25T05:57:58.611Z,3.2
2023-01-25T05:59:06.179Z,3.2
2023-01-25T06:00:14.036Z,3.2
2023-01-25T06:01:21.978Z,3.2
2023-01-25T06:02:29.714Z,3.2
2023-01-25T06:03:36.538Z,3.2
2023-01-25T06:04:43.479Z,3.2
2023-01-25T06:05:50.624Z,3.2
2023-01-25T06:06:57.627Z,3.1
2023-01-25T06:08:05.767Z,3.2
2023-01-25T06:09:12.740Z,3.2
2023-01-25T06:10:19.699Z,3.2
2023-01-25T06:11:26.615Z,3.2
2023-01-25T06:12:33.844Z,3.2
2023-01-25T06:13:41.335Z,3.2
2023-01-25T06:14:50.083Z,3.2
2023-01-25T06:15:57.747Z,3.2
2023-01-25T06:17:04.640Z,3.2
2023-01-25T06:18:11.631Z,3.2
2023-01-25T06:19:18.602Z,3.2
2023-01-25T06:20:26.251Z,3.2
2023-01-25T06:21:34.315Z,3.1
2023-01-25T06:22:41.312Z,3.2
2023-01-25T06:23:48.487Z,3.1
2023-01-25T06:24:55.452Z,3.2
2023-01-25T06:26:03.285Z,3.1
2023-01-25T06:27:10.326Z,3.2
2023-01-25T06:28:19.211Z,3.2
2023-01-25T06:29:26.187Z,3.1
2023-01-25T06:30:33.141Z,3.1
2023-01-25T06:31:40.829Z,3.1
2023-01-25T06:32:47.872Z,3.1
2023-01-25T06:33:54.881Z,3.2
2023-01-25T06:35:02.848Z,3.1
2023-01-25T06:36:10.452Z,3.2
2023-01-25T06:37:17.286Z,3.2
2023-01-25T06:38:24.287Z,3.1
2023-01-25T06:39:31.491Z,3.1
2023-01-25T06:40:39.359Z,3.2
2023-01-25T06:41:46.907Z,3.1
2023-01-25T06:42:54.708Z,3.1
2023-01-25T06:44:10.222Z,3.1
2023-01-25T06:45:17.241Z,3.2
2023-01-25T06:46:24.436Z,3.2
2023-01-25T06:47:31.523Z,3
2023-01-25T06:48:39.381Z,3.1
2023-01-25T06:49:46.911Z,3.1
2023-01-25T06:50:53.883Z,3.1
2023-01-25T06:52:06.255Z,3.2
2023-01-25T06:53:13.841Z,3.2
2023-01-25T06:54:21.271Z,3.1
2023-01-25T06:55:28.320Z,3.1
2023-01-25T06:56:35.299Z,3.2
2023-01-25T06:57:42.978Z,3.2
2023-01-25T06:58:49.947Z,3.2
2023-01-25T06:59:56.935Z,3.2
2023-01-25T07:01:04.449Z,3.2
2023-01-25T07:02:16.605Z,3.1
2023-01-25T07:03:23.604Z,3.1
2023-01-25T07:04:31.444Z,3.2
2023-01-25T07:05:39.103Z,3.1
2023-01-25T07:06:46.891Z,3.1
2023-01-25T07:07:55.162Z,3.2
2023-01-25T07:09:02.247Z,3.2
2023-01-25T07:10:13.146Z,3.1
2023-01-25T07:11:20.066Z,3.1
2023-01-25T07:12:27.858Z,3.2
2023-01-25T07:13:35.366Z,3.2
2023-01-25T07:14:42.288Z,3.2
2023-01-25T07:15:49.815Z,3.1
2023-01-25T07:17:03.890Z,3.1
2023-01-25T07:18:16.084Z,3.2
2023-01-25T07:19:17.203Z,3.2
2023-01-25T07:20:26.401Z,3.2
2023-01-25T07:21:33.547Z,3.2
2023-01-25T07:22:41.187Z,3.3
2023-01-25T07:23:48.586Z,3.3
2023-01-25T07:24:55.976Z,3.3
2023-01-25T07:26:02.887Z,3.2
2023-01-25T07:27:09.732Z,3.1
2023-01-25T07:28:16.649Z,3.2
2023-01-25T07:29:23.706Z,3.2
2023-01-25T07:30:31.482Z,3.3
2023-01-25T07:31:38.463Z,3.3
2023-01-25T07:32:45.352Z,3.3
2023-01-25T07:33:53.206Z,3.3
2023-01-25T07:35:00.236Z,3.3
2023-01-25T07:36:07.362Z,3.3
2023-01-25T07:37:14.364Z,3.2
2023-01-25T07:38:21.507Z,3.2
2023-01-25T07:39:29.043Z,3.3
2023-01-25T07:40:35.965Z,3.3
2023-01-25T07:41:42.996Z,3.3
2023-01-25T07:42:50.517Z,3.3
2023-01-25T07:43:59.023Z,3.3
2023-01-25T07:45:05.955Z,3.3
2023-01-25T07:46:13.082Z,3.2
2023-01-25T07:47:19.975Z,3.2
2023-01-25T07:48:27.943Z,3.1
2023-01-25T07:49:35.291Z,3.2
2023-01-25T07:50:43.792Z,3.1
2023-01-25T07:51:50.676Z,3.2
2023-01-25T07:52:59.372Z,3.2
2023-01-25T07:54:09.476Z,3.3
2023-01-25T07:55:16.512Z,3.3
2023-01-25T07:56:24.022Z,3.3
2023-01-25T07:57:30.871Z,3.2
2023-01-25T07:58:37.690Z,3.3
2023-01-25T07:59:44.998Z,3.3
2023-01-25T08:00:51.903Z,3.3
2023-01-25T08:01:59.521Z,3.2
2023-01-25T08:03:06.931Z,3.3
2023-01-25T08:04:13.947Z,3.3
2023-01-25T08:05:21.616Z,3.2
2023-01-25T08:06:28.936Z,3.2
2023-01-25T08:07:36.850Z,3.3
2023-01-25T08:08:43.881Z,3.3
2023-01-25T08:09:50.880Z,3.3
2023-01-25T08:10:58.337Z,3.3
2023-01-25T08:12:08.451Z,3.3
2023-01-25T08:13:14.723Z,3.4
2023-01-25T08:14:21.822Z,3.3
2023-01-25T08:15:30.179Z,3.4
2023-01-25T08:16:37.080Z,3.3
2023-01-25T08:17:44.611Z,3.4
2023-01-25T08:18:52.275Z,3.4
2023-01-25T08:19:59.691Z,3.4
2023-01-25T08:21:06.650Z,3.4
2023-01-25T08:22:13.620Z,3.4
2023-01-25T08:23:21.967Z,3.4
2023-01-25T08:24:31.312Z,3.4
2023-01-25T08:25:38.531Z,3.4
2023-01-25T08:26:46.019Z,3.4
2023-01-25T08:27:52.979Z,3.5
2023-01-25T08:29:01.452Z,3.5
2023-01-25T08:30:08.344Z,3.5
2023-01-25T08:31:19.260Z,3.5
2023-01-25T08:32:26.574Z,3.1
2023-01-25T08:33:35.216Z,3.2
2023-01-25T08:34:42.579Z,3.2
2023-01-25T08:35:49.928Z,3.3
2023-01-25T08:36:59.770Z,3.3
2023-01-25T08:38:06.785Z,3.3
2023-01-25T08:39:14.364Z,3.3
2023-01-25T08:40:22.322Z,3.3
2023-01-25T08:41:29.875Z,3.4
2023-01-25T08:42:37.774Z,3.4
2023-01-25T08:43:45.754Z,3.5
2023-01-25T08:44:53.935Z,3.5
2023-01-25T08:46:00.953Z,3.6
2023-01-25T08:47:08.935Z,3.6
2023-01-25T08:48:16.250Z,3.6
2023-01-25T08:49:23.238Z,3.6
2023-01-25T08:50:30.227Z,3.5
2023-01-25T08:51:37.715Z,3.6
2023-01-25T08:52:44.799Z,3.6
2023-01-25T08:53:51.726Z,3.6
2023-01-25T08:54:58.730Z,3.5
2023-01-25T08:56:07.302Z,3.6
2023-01-25T08:57:14.271Z,3.5
2023-01-25T08:58:21.413Z,3.5
2023-01-25T08:59:29.043Z,3.6
2023-01-25T09:00:36.395Z,3.6
2023-01-25T09:01:44.420Z,3.5
2023-01-25T09:02:51.325Z,3.5
2023-01-25T09:03:58.970Z,3.6
2023-01-25T09:05:05.769Z,3.5
2023-01-25T09:06:15.599Z,3.5
2023-01-25T09:07:23.474Z,3.6
2023-01-25T09:08:31.346Z,3.6
2023-01-25T09:09:38.962Z,3.7
2023-01-25T09:10:45.894Z,3.7
2023-01-25T09:11:52.714Z,3.7
2023-01-25T09:12:59.470Z,3.6
2023-01-25T09:14:06.796Z,3.7
2023-01-25T09:15:14.025Z,3.8
2023-01-25T09:16:21.330Z,3.8
2023-01-25T09:17:34.031Z,3.7
2023-01-25T09:18:41.516Z,3.7
2023-01-25T09:19:48.421Z,3.7
2023-01-25T09:20:55.821Z,3.7
2023-01-25T09:22:03.149Z,3.8
2023-01-25T09:23:10.585Z,3.7
2023-01-25T09:24:17.620Z,3.7
2023-01-25T09:25:24.559Z,3.7
2023-01-25T09:26:32.371Z,3.6
2023-01-25T09:27:39.391Z,3.5
2023-01-25T09:28:46.320Z,3.6
2023-01-25T09:30:01.655Z,3.7
2023-01-25T09:31:19.071Z,3.6
2023-01-25T09:32:09.356Z,3.6
2023-01-25T09:33:16.327Z,3.6
2023-01-25T09:34:23.307Z,3.6
2023-01-25T09:35:30.235Z,3.6
2023-01-25T09:36:37.282Z,3.7
2023-01-25T09:37:44.157Z,3.8
2023-01-25T09:38:51.466Z,3.7
2023-01-25T09:39:58.830Z,3.7
2023-01-25T09:41:06.278Z,3.8
2023-01-25T09:42:15.419Z,3.6
2023-01-25T09:43:32.016Z,3.7
2023-01-25T09:44:47.503Z,3.7
2023-01-25T09:46:05.153Z,3.7
2023-01-25T09:47:20.390Z,3.7
2023-01-25T09:48:30.487Z,3.8
2023-01-25T09:49:40.762Z,3.8
2023-01-25T09:50:52.891Z,3.8
2023-01-25T09:52:09.087Z,3.8
2023-01-25T09:53:19.131Z,3.7
2023-01-25T09:54:31.840Z,3.6
2023-01-25T09:55:38.721Z,3.6
2023-01-25T09:56:46.650Z,3.6
2023-01-25T09:57:54.220Z,3.7
2023-01-25T09:59:01.265Z,3.5
2023-01-25T10:00:09.528Z,3.5
2023-01-25T10:01:33.071Z,3.7
2023-01-25T10:02:35.844Z,3.7
2023-01-25T10:03:47.861Z,3.6
2023-01-25T10:05:01.400Z,3.7
2023-01-25T10:06:12.222Z,3.5
2023-01-25T10:07:22.639Z,3.5
2023-01-25T10:08:34.248Z,3.7
2023-01-25T10:09:51.981Z,3.8
2023-01-25T10:11:04.659Z,3.8
2023-01-25T10:12:12.577Z,3.7
2023-01-25T10:13:19.475Z,3.6
2023-01-25T10:14:28.113Z,3.5
2023-01-25T10:15:35.432Z,3.5
2023-01-25T10:16:48.200Z,3.7
2023-01-25T10:17:55.636Z,3.7
2023-01-25T10:19:05.320Z,3.8
2023-01-25T10:20:23.570Z,3.8
2023-01-25T10:21:41.637Z,3.8
2023-01-25T10:22:51.523Z,3.8
2023-01-25T10:24:04.983Z,3.7
2023-01-25T10:25:22.273Z,3.8
2023-01-25T10:26:34.285Z,3.8
2023-01-25T10:27:41.269Z,3.8
2023-01-25T10:28:51.255Z,3.8
2023-01-25T10:30:06.556Z,3.8
2023-01-25T10:31:24.111Z,3.9
2023-01-25T10:32:44.616Z,3.9
2023-01-25T10:33:46.570Z,3.9
2023-01-25T10:34:56.918Z,3.6
2023-01-25T10:36:01.381Z,3.8
2023-01-25T10:37:09.277Z,3.9
2023-01-25T10:38:17.228Z,3.9
2023-01-25T10:39:29.409Z,3.8
2023-01-25T10:40:36.363Z,3.8
2023-01-25T10:41:48.429Z,3.8
2023-01-25T10:43:04.571Z,3.9
2023-01-25T10:44:13.709Z,3.9
2023-01-25T10:45:26.654Z,3.8
2023-01-25T10:46:34.867Z,3.8
2023-01-25T10:47:41.955Z,3.9
2023-01-25T10:48:52.955Z,3.9
2023-01-25T10:50:00.402Z,3.9
2023-01-25T10:51:09.101Z,3.7
2023-01-25T10:52:16.393Z,3.7
2023-01-25T10:53:26.083Z,3.8
2023-01-25T10:54:40.843Z,3.8
2023-01-25T10:55:48.476Z,3.7
2023-01-25T10:57:05.656Z,3.5
2023-01-25T10:58:12.593Z,3.4
2023-01-25T10:59:20.204Z,3.4
2023-01-25T11:00:30.038Z,3.6
2023-01-25T11:01:40.695Z,3.6
2023-01-25T11:02:47.600Z,3.7
2023-01-25T11:03:55.032Z,3.6
2023-01-25T11:05:02.256Z,3.7
2023-01-25T11:06:21.343Z,3.7
2023-01-25T11:07:33.488Z,3.7
2023-01-25T11:08:41.925Z,3.7
2023-01-25T11:09:48.842Z,3.6
2023-01-25T11:10:55.974Z,3.7
2023-01-25T11:12:04.336Z,3.8
2023-01-25T11:13:21.639Z,3.8
2023-01-25T11:14:29.063Z,3.7
2023-01-25T11:15:36.806Z,3.6
2023-01-25T11:16:46.284Z,3.6
2023-01-25T11:17:53.305Z,3.6
2023-01-25T11:19:09.444Z,3.4
2023-01-25T11:20:28.178Z,3.5
2023-01-25T11:21:35.527Z,3.7
2023-01-25T11:22:42.959Z,3.5
2023-01-25T11:23:52.495Z,3.5
2023-01-25T11:25:07.804Z,3.4
2023-01-25T11:26:26.422Z,3.5
2023-01-25T11:27:34.562Z,3.5
2023-01-25T11:28:41.409Z,3.4
2023-01-25T11:29:49.463Z,3.4
2023-01-25T11:31:07.496Z,3.3
2023-01-25T11:32:18.090Z,3.4
2023-01-25T11:33:25.183Z,3.6
2023-01-25T11:34:32.327Z,3.6
2023-01-25T11:35:39.276Z,3.5
2023-01-25T11:36:51.475Z,3.4
2023-01-25T11:38:08.924Z,3.3
2023-01-25T11:39:15.794Z,3.2
2023-01-25T11:40:33.138Z,3.3
2023-01-25T11:41:45.508Z,3.2
2023-01-25T11:42:52.616Z,3.2
2023-01-25T11:44:09.846Z,3.3
2023-01-25T11:45:24.668Z,3.1
2023-01-25T11:46:42.180Z,3.1
2023-01-25T11:47:57.408Z,3.3
2023-01-25T11:49:14.655Z,3.3
2023-01-25T11:50:27.574Z,3.4
2023-01-25T11:51:35.459Z,3.6
2023-01-25T11:52:45.351Z,3.5
2023-01-25T11:53:58.431Z,3.5
2023-01-25T11:55:11.552Z,3.5
2023-01-25T11:56:28.915Z,3.6
2023-01-25T11:57:46.467Z,3.6
2023-01-25T11:58:56.619Z,3.6
2023-01-25T12:00:12.938Z,3.5
2023-01-25T12:01:24.896Z,3.6
2023-01-25T12:02:40.310Z,3.7
2023-01-25T12:03:52.558Z,3.6
2023-01-25T12:05:09.614Z,3.7
2023-01-25T12:06:16.803Z,3.7
2023-01-25T12:07:34.264Z,3.8
2023-01-25T12:08:51.160Z,3.8
2023-01-25T12:10:09.117Z,3.9
2023-01-25T12:11:24.232Z,3.6
2023-01-25T12:12:37.618Z,3.3
2023-01-25T12:13:49.830Z,3.4
2023-01-25T12:15:07.235Z,3.6
2023-01-25T12:16:22.124Z,3.6
2023-01-25T12:17:39.750Z,3.6
2023-01-25T12:18:54.777Z,3.7
2023-01-25T12:20:05.413Z,3.8
2023-01-25T12:21:30.150Z,3.9
2023-01-25T12:22:27.910Z,3.9
2023-01-25T12:23:38.088Z,3.8
2023-01-25T12:24:50.157Z,3.5
2023-01-25T12:26:05.804Z,3.8
2023-01-25T12:27:26.039Z,3.8
2023-01-25T12:28:37.909Z,3.8
2023-01-25T12:29:44.771Z,3.9
2023-01-25T12:30:51.782Z,3.9
2023-01-25T12:31:59.163Z,3.8
2023-01-25T12:33:14.580Z,3.8
2023-01-25T12:34:19.614Z,3.9
2023-01-25T12:35:26.827Z,3.8
2023-01-25T12:36:34.485Z,3.8
2023-01-25T12:37:42.705Z,3.6
2023-01-25T12:38:49.683Z,3.8
2023-01-25T12:40:00.533Z,3.6
2023-01-25T12:41:10.048Z,3.8
2023-01-25T12:42:28.968Z,3.7
2023-01-25T12:43:36.728Z,3.7
2023-01-25T12:44:48.793Z,3.7
2023-01-25T12:45:57.429Z,3.7
2023-01-25T12:47:04.296Z,3.6
2023-01-25T12:48:21.958Z,3.7
2023-01-25T12:49:30.750Z,3.8
2023-01-25T12:50:38.868Z,3.8
2023-01-25T12:51:46.082Z,3.7
2023-01-25T12:52:53.197Z,3.6
2023-01-25T12:54:08.057Z,3.6
2023-01-25T12:55:21.413Z,3.6
2023-01-25T12:56:28.903Z,3.6
2023-01-25T12:57:35.900Z,3.7
2023-01-25T12:58:55.132Z,3.8
2023-01-25T13:00:07.766Z,3.8
2023-01-25T13:01:22.999Z,3.5
2023-01-25T13:02:38.230Z,3.5
2023-01-25T13:03:53.305Z,3.4
2023-01-25T13:05:10.733Z,3.6
2023-01-25T13:06:17.952Z,3.8
2023-01-25T13:07:27.856Z,3.6
2023-01-25T13:08:35.113Z,3.6
2023-01-25T13:09:48.184Z,3.7
2023-01-25T13:11:00.692Z,3.9
2023-01-25T13:12:14.034Z,3.9
2023-01-25T13:13:21.460Z,3.5
2023-01-25T13:14:29.453Z,3.4
2023-01-25T13:15:39.178Z,3.5
2023-01-25T13:16:46.271Z,3.5
2023-01-25T13:17:54.368Z,3.6
2023-01-25T13:19:02.431Z,3.7
2023-01-25T13:20:11.476Z,3.8
2023-01-25T13:21:23.088Z,3.9
2023-01-25T13:22:38.513Z,3.9
2023-01-25T13:23:48.437Z,3.8
2023-01-25T13:24:56.579Z,3.8
2023-01-25T13:26:06.788Z,3.8
2023-01-25T13:27:18.994Z,3.9
2023-01-25T13:28:31.289Z,3.9
2023-01-25T13:29:38.883Z,3.9
2023-01-25T13:30:46.893Z,3.9
2023-01-25T13:31:55.467Z,3.9
2023-01-25T13:33:01.261Z,4
2023-01-25T13:34:08.607Z,3.9
2023-01-25T13:35:26.235Z,4
2023-01-25T13:36:39.215Z,3.9
2023-01-25T13:37:46.589Z,3.8
2023-01-25T13:38:54.000Z,3.9
2023-01-25T13:40:08.244Z,4
2023-01-25T13:41:07.936Z,4
2023-01-25T13:42:17.673Z,3.9
2023-01-25T13:43:27.503Z,3.8
2023-01-25T13:44:34.972Z,3.9
2023-01-25T13:45:42.233Z,3.9
2023-01-25T13:46:50.028Z,3.9
2023-01-25T13:48:02.764Z,3.9
2023-01-25T13:49:10.041Z,3.9
2023-01-25T13:50:17.460Z,4
2023-01-25T13:51:30.670Z,4
2023-01-25T13:52:39.140Z,4.1
2023-01-25T13:53:46.212Z,4.1
2023-01-25T13:54:59.626Z,4
2023-01-25T13:56:07.604Z,3.8
2023-01-25T13:57:14.893Z,3.9
2023-01-25T13:58:25.091Z,4
2023-01-25T13:59:32.490Z,4.1
2023-01-25T14:00:40.468Z,4.1
2023-01-25T14:01:53.539Z,3.9
2023-01-25T14:03:00.620Z,3.5
2023-01-25T14:04:09.193Z,3.5
2023-01-25T14:05:16.292Z,3.6
2023-01-25T14:06:23.582Z,3.7
2023-01-25T14:07:33.761Z,3.7
2023-01-25T14:08:40.691Z,3.7
2023-01-25T14:09:49.588Z,3.8
2023-01-25T14:10:56.967Z,3.9
2023-01-25T14:12:04.336Z,3.9
2023-01-25T14:13:13.552Z,4
2023-01-25T14:14:20.511Z,4
2023-01-25T14:15:35.687Z,4
2023-01-25T14:16:42.821Z,4.1
2023-01-25T14:17:50.131Z,4
2023-01-25T14:19:07.985Z,4.1
2023-01-25T14:20:26.833Z,4.1
2023-01-25T14:21:34.253Z,4.1
2023-01-25T14:22:41.615Z,4.1
2023-01-25T14:23:51.680Z,4.1
2023-01-25T14:24:59.706Z,4
2023-01-25T14:26:16.552Z,4.1
2023-01-25T14:27:29.221Z,4.1
2023-01-25T14:28:39.088Z,4.1
2023-01-25T14:29:46.545Z,4.2
2023-01-25T14:30:53.719Z,4.1
2023-01-25T14:32:00.868Z,4.2
2023-01-25T14:33:07.912Z,4.1
2023-01-25T14:34:20.179Z,4.1
2023-01-25T14:35:41.821Z,4
2023-01-25T14:36:40.507Z,4.1
2023-01-25T14:37:47.587Z,4.1
2023-01-25T14:38:54.803Z,4.1
2023-01-25T14:40:02.225Z,4.2
2023-01-25T14:41:10.074Z,4.2
2023-01-25T14:42:28.576Z,4.2
2023-01-25T14:43:36.121Z,4.1
2023-01-25T14:44:43.186Z,4.1
2023-01-25T14:45:50.210Z,4.1
2023-01-25T14:46:59.707Z,4.2
2023-01-25T14:48:17.747Z,4.2
2023-01-25T14:49:37.196Z,4.2
2023-01-25T14:50:44.179Z,4.2
2023-01-25T14:51:51.319Z,4.3
2023-01-25T14:53:03.559Z,4.3
2023-01-25T14:54:17.016Z,4.3
2023-01-25T14:55:23.956Z,4.2
2023-01-25T14:56:31.283Z,4.1
2023-01-25T14:57:38.644Z,4
2023-01-25T14:58:50.779Z,4.1
2023-01-25T14:59:53.595Z,4.1
2023-01-25T15:01:01.040Z,4.2
2023-01-25T15:02:08.230Z,4.2
2023-01-25T15:03:24.281Z,4.2
2023-01-25T15:04:32.808Z,4.2
2023-01-25T15:05:38.628Z,4.2
2023-01-25T15:06:45.684Z,4.3
2023-01-25T15:07:52.780Z,4.2
2023-01-25T15:09:00.239Z,4.3
2023-01-25T15:10:09.258Z,4.3
2023-01-25T15:11:26.501Z,4.2
2023-01-25T15:12:39.021Z,4.2
2023-01-25T15:13:46.276Z,4.2
2023-01-25T15:14:53.790Z,4.2
2023-01-25T15:16:01.094Z,4.2
2023-01-25T15:17:08.328Z,4.2
2023-01-25T15:18:16.262Z,4.1
2023-01-25T15:19:33.560Z,4.1
2023-01-25T15:20:40.729Z,4.1
2023-01-25T15:21:48.652Z,4.1
2023-01-25T15:22:56.177Z,4.1
2023-01-25T15:24:14.045Z,4.1
2023-01-25T15:25:24.193Z,4.1
2023-01-25T15:26:30.715Z,4.1
2023-01-25T15:27:38.078Z,4.1
2023-01-25T15:28:45.201Z,4.1
2023-01-25T15:29:55.683Z,4.1
2023-01-25T15:31:02.785Z,4
2023-01-25T15:32:09.762Z,4
2023-01-25T15:33:22.615Z,4
2023-01-25T15:34:33.481Z,4
2023-01-25T15:35:40.893Z,4.1
2023-01-25T15:36:47.967Z,4
2023-01-25T15:37:56.892Z,4
2023-01-25T15:39:04.155Z,4
2023-01-25T15:40:14.530Z,4
2023-01-25T15:41:22.727Z,4
2023-01-25T15:42:29.921Z,4
2023-01-25T15:43:38.121Z,4
2023-01-25T15:44:45.923Z,4
2023-01-25T15:45:53.064Z,4
2023-01-25T15:47:00.279Z,4
2023-01-25T15:48:08.562Z,4
2023-01-25T15:49:15.952Z,4
2023-01-25T15:50:29.325Z,3.9
2023-01-25T15:51:36.320Z,4
2023-01-25T15:52:43.442Z,3.9
2023-01-25T15:53:50.564Z,3.9